Time;durP1;ratioP1;P1;durP2;ratioP2;P2;SDS_P1;SDS_P2;PMS_P1;PMS_P2;Temp;Humidity;BMP_temperature;BMP_pressure;BME280_temperature;BME280_humidity;BME280_pressure;Samples;Min_cycle;Max_cycle;Signal;HPM_P1;HPM_P2
2024/01/22 00:01:45;;;;;;;24.10;12.87;;;;;;;-2.68;100.00;62621.19;5054481;28;20577;-52
2024/01/22 00:04:11;;;;;;;27.07;14.50;;;;;;;-2.54;100.00;62638.75;5072271;28;20283;-52
2024/01/22 00:09:22;;;;;;;32.80;15.13;;;;;;;-2.91;100.00;62596.38;5080056;22;20239;-59
2024/01/22 00:11:47;;;;;;;28.00;13.17;;;;;;;-3.10;100.00;62575.88;5054476;28;20199;-55
2024/01/22 00:14:13;;;;;;;26.57;11.97;;;;;;;-3.21;100.00;62566.47;5072200;28;20192;-53
2024/01/22 00:16:39;;;;;;;24.33;12.30;;;;;;;-3.21;100.00;62567.00;5072049;28;20184;-54
2024/01/22 00:19:06;;;;;;;25.90;12.57;;;;;;;-3.24;100.00;62561.31;5072099;28;20212;-55
2024/01/22 00:21:32;;;;;;;24.00;11.87;;;;;;;-3.22;100.00;62562.94;5071146;28;20270;-52
2024/01/22 00:23:57;;;;;;;22.80;12.37;;;;;;;-3.08;100.00;62578.03;5054059;28;20225;-53
2024/01/22 00:26:23;;;;;;;23.63;12.60;;;;;;;-3.02;100.00;62589.41;5053972;28;20201;-52
2024/01/22 00:28:48;;;;;;;17.40;9.97;;;;;;;-2.74;100.00;62612.78;5053902;28;20217;-54
2024/01/22 00:31:14;;;;;;;20.40;9.83;;;;;;;-2.70;100.00;62624.50;5054019;28;20745;-52
2024/01/22 00:33:42;;;;;;;21.10;10.30;;;;;;;-2.61;96.94;62631.72;5071775;28;20234;-54
2024/01/22 00:36:08;;;;;;;23.30;11.90;;;;;;;-2.64;98.55;62628.50;5071913;28;20642;-52
2024/01/22 00:38:33;;;;;;;21.23;10.43;;;;;;;-2.81;98.83;62607.16;5071011;28;20223;-55
2024/01/22 00:40:59;;;;;;;23.80;11.67;;;;;;;-2.91;99.54;62598.84;5071729;28;20178;-53
2024/01/22 00:43:24;;;;;;;22.27;11.37;;;;;;;-2.71;100.00;62620.94;5053134;28;20220;-55
2024/01/22 00:45:50;;;;;;;20.10;10.57;;;;;;;-2.71;100.00;62617.94;5071694;28;20659;-54
2024/01/22 00:48:16;;;;;;;19.50;10.77;;;;;;;-2.80;100.00;62608.22;5071762;28;20205;-53
2024/01/22 00:50:41;;;;;;;21.63;10.80;;;;;;;-2.72;100.00;62621.78;5071625;28;20191;-53
2024/01/22 00:53:07;;;;;;;20.87;10.90;;;;;;;-2.69;100.00;62622.56;5053487;28;20212;-57
2024/01/22 00:55:32;;;;;;;19.33;10.77;;;;;;;-2.48;99.13;62645.22;5071499;28;20189;-54
2024/01/22 00:57:59;;;;;;;24.37;11.70;;;;;;;-2.63;98.55;62629.03;5071173;28;20237;-55
2024/01/22 01:00:26;;;;;;;24.57;11.23;;;;;;;-2.80;100.00;62610.69;5053832;28;20239;-54
2024/01/22 01:02:52;;;;;;;24.80;11.97;;;;;;;-2.90;100.00;62599.91;5053662;28;20220;-53
2024/01/22 01:05:18;;;;;;;19.27;9.63;;;;;;;-2.83;99.44;62605.00;5071432;28;20192;-53
2024/01/22 01:07:44;;;;;;;18.50;9.77;;;;;;;-2.87;97.32;62598.75;5053401;28;20208;-54
2024/01/22 01:10:10;;;;;;;17.17;8.70;;;;;;;-3.01;98.55;62588.56;5071382;28;20215;-52
2024/01/22 01:12:35;;;;;;;16.70;10.27;;;;;;;-3.12;98.14;62578.63;5071118;28;20641;-53
2024/01/22 01:15:01;;;;;;;15.57;9.47;;;;;;;-3.28;98.53;62554.53;5071257;28;20191;-53
2024/01/22 01:17:26;;;;;;;17.50;9.20;;;;;;;-3.37;100.00;62554.16;5071141;28;20285;-53
2024/01/22 01:19:52;;;;;;;19.13;9.87;;;;;;;-3.22;98.66;62565.94;5071131;28;20284;-53
2024/01/22 01:22:18;;;;;;;16.33;9.90;;;;;;;-3.33;99.47;62554.06;5071137;28;20302;-53
2024/01/22 01:24:44;;;;;;;15.97;8.70;;;;;;;-3.19;98.75;62571.09;5071508;28;20203;-54
2024/01/22 01:27:09;;;;;;;16.17;8.87;;;;;;;-3.20;99.18;62567.53;5053094;28;20699;-53
2024/01/22 01:29:38;;;;;;;20.83;10.57;;;;;;;-3.15;98.75;62573.47;5071261;28;20209;-53
2024/01/22 01:32:05;;;;;;;18.10;10.27;;;;;;;-3.42;100.00;62544.38;5069729;28;20689;-55
2024/01/22 01:34:30;;;;;;;23.10;11.73;;;;;;;-3.58;100.00;62527.66;5071057;28;20216;-52
2024/01/22 01:36:56;;;;;;;19.10;10.20;;;;;;;-3.53;100.00;62532.50;5070841;28;20736;-53
2024/01/22 01:39:22;;;;;;;20.77;10.37;;;;;;;-3.44;100.00;62544.66;5053037;28;20186;-54
2024/01/22 01:41:51;;;;;;;20.67;10.20;;;;;;;-3.49;100.00;62537.34;5052914;28;20210;-52
2024/01/22 01:44:16;;;;;;;16.87;9.97;;;;;;;-3.38;100.00;62548.13;5071160;28;20278;-53
2024/01/22 01:46:42;;;;;;;16.97;9.70;;;;;;;-3.19;99.03;62568.63;5070800;28;20213;-56
2024/01/22 01:49:08;;;;;;;18.67;10.20;;;;;;;-3.16;100.00;62569.94;5053118;28;20199;-54
2024/01/22 01:51:35;;;;;;;23.73;11.73;;;;;;;-3.19;100.00;62566.16;5070529;28;20613;-52
2024/01/22 01:54:04;;;;;;;27.93;13.67;;;;;;;-3.51;100.00;62537.66;5052775;28;20189;-53
2024/01/22 01:56:32;;;;;;;24.93;11.87;;;;;;;-3.80;100.00;62506.41;5070830;28;20185;-54
2024/01/22 01:58:58;;;;;;;24.40;12.33;;;;;;;-3.88;100.00;62492.84;5070544;28;20226;-54
2024/01/22 02:01:24;;;;;;;23.07;11.27;;;;;;;-3.54;100.00;62531.97;5070731;28;20185;-51
2024/01/22 02:03:49;;;;;;;26.43;12.07;;;;;;;-3.70;100.00;62514.72;5070498;28;20221;-52
2024/01/22 02:06:15;;;;;;;27.03;12.37;;;;;;;-4.06;100.00;62477.84;5070508;28;20196;-54
2024/01/22 02:08:53;;;;;;;28.13;12.63;;;;;;;-4.05;100.00;62479.44;5070377;28;20606;-55
2024/01/22 02:11:22;;;;;;;22.73;12.37;;;;;;;-4.11;100.00;62467.53;5070507;28;20192;-53
2024/01/22 02:13:48;;;;;;;23.67;12.30;;;;;;;-4.05;100.00;62477.00;5070598;28;20670;-52
2024/01/22 02:16:14;;;;;;;20.83;11.83;;;;;;;-4.07;100.00;62474.84;5070527;28;20183;-54
2024/01/22 02:18:40;;;;;;;27.17;12.80;;;;;;;-3.69;100.00;62515.25;5052274;28;20224;-53
2024/01/22 02:21:06;;;;;;;25.07;11.53;;;;;;;-3.71;100.00;62510.63;5052360;28;20193;-52
2024/01/22 02:23:31;;;;;;;26.80;13.07;;;;;;;-3.43;100.00;62541.34;5052244;28;20215;-52
2024/01/22 02:25:57;;;;;;;24.50;13.53;;;;;;;-3.57;100.00;62528.72;5070444;28;20192;-51
2024/01/22 02:28:22;;;;;;;24.20;11.43;;;;;;;-3.74;100.00;62509.88;5052218;28;20252;-53
2024/01/22 02:30:48;;;;;;;22.37;11.40;;;;;;;-4.10;100.00;62469.13;5052575;28;20188;-54
2024/01/22 02:33:13;;;;;;;27.40;12.67;;;;;;;-4.07;100.00;62474.28;5052559;28;20707;-53
2024/01/22 02:35:39;;;;;;;21.40;11.90;;;;;;;-4.23;100.00;62460.06;5070422;28;20186;-54
2024/01/22 02:38:05;;;;;;;25.03;12.67;;;;;;;-4.14;100.00;62466.75;5070174;28;20649;-53
2024/01/22 02:40:31;;;;;;;24.40;11.17;;;;;;;-4.00;100.00;62479.38;5070072;28;20275;-54
2024/01/22 02:42:56;;;;;;;19.27;9.97;;;;;;;-4.15;100.00;62468.69;5070065;28;20221;-55
2024/01/22 02:45:22;;;;;;;22.83;11.63;;;;;;;-4.19;100.00;62461.38;5070757;28;20617;-54
2024/01/22 02:47:47;;;;;;;21.50;11.53;;;;;;;-4.36;100.00;62446.59;5073477;28;20227;-52
2024/01/22 02:50:13;;;;;;;23.90;10.90;;;;;;;-4.13;100.00;62465.38;5073481;28;20583;-53
2024/01/22 02:52:39;;;;;;;26.60;11.70;;;;;;;-4.20;100.00;62458.38;5073242;28;20315;-55
2024/01/22 02:55:05;;;;;;;22.17;10.70;;;;;;;-4.23;100.00;62457.06;5073400;28;20194;-53
2024/01/22 02:57:30;;;;;;;25.50;11.97;;;;;;;-4.02;100.00;62480.22;5073384;28;20208;-53
2024/01/22 02:59:56;;;;;;;22.43;11.10;;;;;;;-4.05;100.00;62476.44;5073695;28;20199;-54
2024/01/22 03:02:22;;;;;;;29.50;14.53;;;;;;;-4.06;100.00;62475.91;5055257;28;20297;-55
2024/01/22 03:04:48;;;;;;;28.50;14.00;;;;;;;-4.31;100.00;62448.97;5073336;28;20307;-55
2024/01/22 03:07:13;;;;;;;26.40;12.53;;;;;;;-4.48;100.00;62428.75;5055452;28;20239;-53
2024/01/22 03:09:39;;;;;;;27.37;12.13;;;;;;;-4.56;100.00;62425.06;5055164;28;20286;-53
2024/01/22 03:12:05;;;;;;;29.80;13.07;;;;;;;-4.73;100.00;62404.31;5073116;28;20229;-54
2024/01/22 03:14:31;;;;;;;28.57;12.50;;;;;;;-4.60;100.00;62417.75;5073490;28;20222;-52
2024/01/22 03:16:56;;;;;;;32.87;12.87;;;;;;;-4.61;100.00;62417.22;5072854;28;20206;-56
2024/01/22 03:19:22;;;;;;;24.70;11.40;;;;;;;-4.68;100.00;62409.13;5073343;28;20205;-54
2024/01/22 03:21:48;;;;;;;23.40;11.20;;;;;;;-4.68;100.00;62409.13;5069388;28;20205;-56
2024/01/22 03:24:13;;;;;;;25.57;11.87;;;;;;;-4.46;100.00;62430.91;5069740;28;20199;-54
2024/01/22 03:26:39;;;;;;;24.07;10.80;;;;;;;-4.42;100.00;62437.13;5070575;28;20171;-53
2024/01/22 03:29:04;;;;;;;24.40;11.70;;;;;;;-4.53;100.00;62425.28;5070794;28;20255;-54
2024/01/22 03:31:32;;;;;;;21.57;11.10;;;;;;;-4.54;100.00;62424.22;5070764;28;20661;-54
2024/01/22 03:33:58;;;;;;;26.60;12.90;;;;;;;-4.35;100.00;62445.22;5072681;28;20192;-53
2024/01/22 03:36:25;;;;;;;26.37;11.60;;;;;;;-4.47;100.00;62431.75;5072755;28;20177;-53
2024/01/22 03:38:50;;;;;;;25.67;12.40;;;;;;;-4.45;100.00;62434.44;5072417;28;20228;-55
2024/01/22 03:41:17;;;;;;;25.97;12.33;;;;;;;-4.33;100.00;62446.84;5054604;28;20282;-54
2024/01/22 03:43:44;;;;;;;33.73;13.27;;;;;;;-4.31;100.00;62448.97;5058451;22;20223;-53
2024/01/22 03:46:11;;;;;;;23.60;10.77;;;;;;;-4.38;100.00;62441.44;5052661;28;20177;-53
2024/01/22 03:48:37;;;;;;;23.47;10.70;;;;;;;-4.45;100.00;62434.44;5052875;28;20246;-52
2024/01/22 03:51:02;;;;;;;24.30;11.60;;;;;;;-4.57;100.00;62420.97;5052419;28;20179;-52
2024/01/22 03:53:28;;;;;;;24.23;11.70;;;;;;;-4.48;100.00;62431.22;5034768;28;20680;-53
2024/01/22 03:55:54;;;;;;;27.03;12.60;;;;;;;-4.71;100.00;62408.38;5052212;28;20225;-53
2024/01/22 03:58:19;;;;;;;25.13;11.53;;;;;;;-4.80;100.00;62393.75;5051541;28;20214;-53
2024/01/22 04:00:45;;;;;;;22.93;12.20;;;;;;;-4.82;100.00;62394.06;5034605;28;20248;-54
2024/01/22 04:03:11;;;;;;;28.37;12.07;;;;;;;-4.82;100.00;62394.06;5017617;28;20216;-54
2024/01/22 04:05:37;;;;;;;32.83;13.43;;;;;;;-4.75;100.00;62401.59;5034458;28;20289;-56
2024/01/22 04:08:03;;;;;;;24.03;10.97;;;;;;;-4.83;100.00;62393.53;5052097;28;20239;-52
2024/01/22 04:10:28;;;;;;;16.93;8.00;;;;;;;-5.10;100.00;62366.91;5052232;28;20220;-53
2024/01/22 04:12:57;;;;;;;19.73;8.80;;;;;;;-5.43;100.00;62329.50;5052267;28;20225;-54
2024/01/22 04:15:23;;;;;;;15.70;7.70;;;;;;;-5.19;100.00;62354.78;5034121;28;20198;-53
2024/01/22 04:17:49;;;;;;;17.93;8.03;;;;;;;-5.22;100.00;62351.56;5034037;28;20230;-52
2024/01/22 04:20:14;;;;;;;14.90;7.80;;;;;;;-5.29;100.00;62344.00;5052118;28;20587;-53
2024/01/22 04:22:40;;;;;;;15.90;7.17;;;;;;;-5.48;100.00;62321.13;5052185;28;20212;-52
2024/01/22 04:25:07;;;;;;;15.97;7.50;;;;;;;-5.44;100.00;62327.88;5051852;28;20204;-53
2024/01/22 04:27:32;;;;;;;20.13;8.80;;;;;;;-5.42;100.00;62330.03;5051989;28;20712;-52
2024/01/22 04:29:58;;;;;;;21.50;8.30;;;;;;;-5.33;100.00;62339.72;5050587;28;20197;-53
2024/01/22 04:32:24;;;;;;;21.17;8.97;;;;;;;-5.46;100.00;62326.28;5051845;28;20312;-51
2024/01/22 04:34:50;;;;;;;14.70;7.57;;;;;;;-5.67;100.00;62303.69;5051648;28;20655;-55
2024/01/22 04:37:16;;;;;;;17.17;9.17;;;;;;;-4.39;100.00;62440.38;5051769;28;20225;-51
2024/01/22 04:39:42;;;;;;;23.83;11.57;;;;;;;-4.93;100.00;62382.78;5051744;28;20234;-53
2024/01/22 04:42:09;;;;;;;21.97;10.77;;;;;;;-5.03;100.00;62371.47;5051801;28;20210;-54
2024/01/22 04:44:35;;;;;;;16.90;8.67;;;;;;;-5.08;100.00;62366.06;5051638;28;20205;-53
2024/01/22 04:47:01;;;;;;;20.63;9.70;;;;;;;-5.29;100.00;62344.56;5051649;28;20214;-54
2024/01/22 04:49:27;;;;;;;18.13;9.63;;;;;;;-5.60;100.00;62313.66;5051737;28;20672;-55
2024/01/22 04:51:52;;;;;;;16.03;7.83;;;;;;;-5.73;100.00;62297.22;5033561;28;20714;-53
2024/01/22 04:54:18;;;;;;;18.93;8.83;;;;;;;-5.42;100.00;62330.56;5033814;28;20280;-53
2024/01/22 04:56:47;;;;;;;19.00;9.60;;;;;;;-5.08;100.00;62366.06;5051356;28;20662;-53
2024/01/22 04:59:13;;;;;;;21.27;9.37;;;;;;;-5.15;100.00;62356.63;5051030;28;20215;-53
2024/01/22 05:01:40;;;;;;;17.70;8.50;;;;;;;-5.31;100.00;62341.84;5051314;28;20190;-53
2024/01/22 05:04:06;;;;;;;18.03;8.57;;;;;;;-5.29;100.00;62347.00;5033358;28;20722;-53
2024/01/22 05:06:32;;;;;;;21.73;9.37;;;;;;;-5.31;100.00;62344.84;5033630;28;20281;-54
2024/01/22 05:08:57;;;;;;;21.33;10.23;;;;;;;-5.05;100.00;62369.84;5050793;28;20197;-53
2024/01/22 05:11:23;;;;;;;27.00;11.13;;;;;;;-5.09;100.00;62365.00;5033315;28;20240;-54
2024/01/22 05:13:53;;;;;;;21.50;10.50;;;;;;;-5.32;100.00;62343.78;5051195;28;20217;-54
2024/01/22 05:16:20;;;;;;;24.60;10.73;;;;;;;-5.37;100.00;62338.41;5051167;28;20575;-52
2024/01/22 05:18:47;;;;;;;20.67;9.27;;;;;;;-5.36;100.00;62339.47;5033441;28;20228;-53
2024/01/22 05:21:13;;;;;;;19.23;7.87;;;;;;;-5.44;100.00;62327.88;5051014;28;20182;-54
2024/01/22 05:23:40;;;;;;;17.20;8.20;;;;;;;-5.20;100.00;62351.25;5051260;28;20242;-57
2024/01/22 05:26:07;;;;;;;18.03;7.40;;;;;;;-5.29;100.00;62344.56;5050881;28;20336;-58
2024/01/22 05:28:34;;;;;;;17.43;7.30;;;;;;;-5.43;100.00;62328.94;5051189;28;20220;-52
2024/01/22 05:31:02;;;;;;;12.03;6.53;;;;;;;-5.62;100.00;62309.06;5032431;28;20190;-52
2024/01/22 05:33:28;;;;;;;19.60;8.53;;;;;;;-5.76;100.00;62294.00;5050877;28;20302;-53
2024/01/22 05:35:55;;;;;;;18.33;8.20;;;;;;;-5.92;100.00;62274.38;5050926;28;20189;-54
2024/01/22 05:38:21;;;;;;;13.17;6.70;;;;;;;-6.26;100.00;62240.81;5050743;28;20228;-52
2024/01/22 05:40:46;;;;;;;14.80;7.10;;;;;;;-6.34;100.00;62229.22;5050807;28;20722;-55
2024/01/22 05:43:12;;;;;;;12.33;6.47;;;;;;;-6.34;100.00;62231.69;5050771;28;20241;-54
2024/01/22 05:45:37;;;;;;;14.60;6.83;;;;;;;-6.14;100.00;62253.19;5050874;28;20686;-57
2024/01/22 05:48:03;;;;;;;13.50;6.97;;;;;;;-6.01;100.00;62267.13;5033191;28;20275;-52
2024/01/22 05:50:29;;;;;;;16.90;7.57;;;;;;;-6.18;100.00;62249.41;5050601;28;20285;-51
2024/01/22 05:53:02;;;;;;;19.13;9.27;;;;;;;-6.51;100.00;62211.50;5050686;28;20283;-53
2024/01/22 05:55:28;;;;;;;28.93;12.00;;;;;;;-6.46;100.00;62218.75;5050316;28;20268;-58
2024/01/22 05:57:54;;;;;;;18.70;9.20;;;;;;;-6.29;100.00;62237.03;5050587;28;20662;-53
2024/01/22 06:00:20;;;;;;;22.23;8.87;;;;;;;-5.67;100.00;62303.69;5032681;28;20193;-53
2024/01/22 06:02:45;;;;;;;25.33;10.07;;;;;;;-5.83;100.00;62286.47;5050706;28;20202;-53
2024/01/22 06:05:11;;;;;;;19.20;10.73;;;;;;;-5.77;100.00;62292.91;5050624;28;20192;-54
2024/01/22 06:07:37;;;;;;;32.37;13.17;;;;;;;-5.66;100.00;62304.75;5050402;28;20245;-54
2024/01/22 06:10:05;;;;;;;29.73;11.67;;;;;;;-5.55;100.00;62319.03;5032465;28;20210;-57
2024/01/22 06:12:32;;;;;;;36.17;14.23;;;;;;;-5.50;100.00;62321.97;5048704;28;20209;-56
2024/01/22 06:14:58;;;;;;;30.30;11.30;;;;;;;-5.37;100.00;62335.41;5032192;28;20656;-55
2024/01/22 06:17:24;;;;;;;28.07;10.63;;;;;;;-5.45;100.00;62327.34;5050179;28;20215;-57
2024/01/22 06:19:50;;;;;;;30.03;11.80;;;;;;;-5.17;100.00;62359.38;5032920;28;20699;-54
2024/01/22 06:22:17;;;;;;;24.00;10.37;;;;;;;-5.12;100.00;62362.84;5034756;28;20214;-54
2024/01/22 06:24:44;;;;;;;23.03;9.87;;;;;;;-5.16;100.00;62358.56;5053483;28;20657;-53
2024/01/22 06:27:10;;;;;;;20.97;9.13;;;;;;;-5.42;100.00;62330.56;5053222;28;20224;-54
2024/01/22 06:29:36;;;;;;;15.03;7.23;;;;;;;-5.65;100.00;62305.28;5052202;28;20240;-54
2024/01/22 06:32:03;;;;;;;13.47;7.03;;;;;;;-5.71;100.00;62301.81;5053157;28;20274;-54
2024/01/22 06:34:28;;;;;;;18.03;7.93;;;;;;;-5.75;100.00;62295.06;5035715;28;20185;-53
2024/01/22 06:36:54;;;;;;;21.43;9.43;;;;;;;-5.59;100.00;62314.19;5055778;22;20594;-52
2024/01/22 06:39:19;;;;;;;22.17;9.23;;;;;;;-5.41;100.00;62328.66;5050302;28;20223;-54
2024/01/22 06:41:45;;;;;;;24.10;9.87;;;;;;;-5.25;100.00;62348.84;5050212;28;20205;-53
2024/01/22 06:44:10;;;;;;;19.70;7.93;;;;;;;-5.26;100.00;62347.25;5051985;28;20678;-55
2024/01/22 06:46:36;;;;;;;13.13;8.10;;;;;;;-5.36;100.00;62337.03;5051715;28;20224;-53
2024/01/22 06:49:02;;;;;;;20.27;9.40;;;;;;;-5.47;100.00;62324.66;5047779;28;20201;-54
2024/01/22 06:51:29;;;;;;;17.57;7.93;;;;;;;-5.37;100.00;62337.84;5049532;28;20190;-55
2024/01/22 06:53:56;;;;;;;15.33;6.67;;;;;;;-5.95;100.00;62276.03;5051768;28;20200;-54
2024/01/22 06:56:22;;;;;;;14.53;7.10;;;;;;;-5.72;100.00;62298.31;5034093;28;20247;-53
2024/01/22 06:58:48;;;;;;;14.97;7.07;;;;;;;-5.39;100.00;62336.25;5033243;28;20259;-53
2024/01/22 07:01:14;;;;;;;12.67;6.60;;;;;;;-5.31;100.00;62341.84;5050918;28;20222;-54
2024/01/22 07:03:39;;;;;;;11.83;6.73;;;;;;;-5.42;100.00;62330.03;5051631;28;20278;-53
2024/01/22 07:06:06;;;;;;;16.27;7.07;;;;;;;-5.58;100.00;62307.91;5051607;28;20199;-53
2024/01/22 07:08:32;;;;;;;16.97;7.43;;;;;;;-5.54;100.00;62315.22;5035366;28;20264;-53
2024/01/22 07:10:58;;;;;;;20.03;8.53;;;;;;;-5.21;100.00;62350.16;5053389;28;20204;-53
2024/01/22 07:13:24;;;;;;;17.53;8.57;;;;;;;-5.03;100.00;62374.47;5034975;28;20213;-54
2024/01/22 07:15:50;;;;;;;15.83;8.47;;;;;;;-5.12;100.00;62362.84;5053032;28;20187;-53
2024/01/22 07:18:16;;;;;;;22.47;9.70;;;;;;;-5.16;100.00;62358.00;5052509;28;20229;-52
2024/01/22 07:20:42;;;;;;;20.13;8.97;;;;;;;-5.25;100.00;62348.31;5035231;28;20194;-54
2024/01/22 07:23:08;;;;;;;23.60;9.73;;;;;;;-5.16;100.00;62361.00;5052952;28;20293;-60
2024/01/22 07:25:36;;;;;;;20.17;10.27;;;;;;;-5.05;100.00;62369.84;5052726;28;20277;-55
2024/01/22 07:28:03;;;;;;;26.30;10.93;;;;;;;-5.01;100.00;62371.16;5052833;28;20233;-54
2024/01/22 07:30:29;;;;;;;23.20;10.83;;;;;;;-5.02;100.00;62372.53;5052810;28;20651;-54
2024/01/22 07:32:55;;;;;;;21.30;10.70;;;;;;;-4.77;100.00;62397.53;5052613;28;20229;-52
2024/01/22 07:35:21;;;;;;;27.53;11.90;;;;;;;-4.81;100.00;62395.16;5052666;28;20182;-53
2024/01/22 07:37:46;;;;;;;27.50;11.77;;;;;;;-4.66;100.00;62409.38;5052659;28;20320;-56
2024/01/22 07:40:13;;;;;;;27.77;12.40;;;;;;;-4.64;100.00;62415.91;5034713;28;20613;-54
2024/01/22 07:42:41;;;;;;;29.17;12.13;;;;;;;-4.66;100.00;62409.38;5052469;28;20222;-53
2024/01/22 07:45:08;;;;;;;28.30;12.23;;;;;;;-4.45;100.00;62434.44;5051529;28;20265;-54
2024/01/22 07:47:34;;;;;;;27.57;11.83;;;;;;;-4.34;100.00;62445.75;5052653;28;20215;-55
2024/01/22 07:50:01;;;;;;;30.83;13.53;;;;;;;-4.04;100.00;62478.06;5052731;28;20200;-54
2024/01/22 07:52:27;;;;;;;29.57;12.97;;;;;;;-3.54;100.00;62531.44;5052556;28;20211;-54
2024/01/22 07:54:53;;;;;;;26.67;11.43;;;;;;;-3.02;100.00;62586.97;5052351;28;20232;-55
2024/01/22 07:57:20;;;;;;;30.67;13.03;;;;;;;-2.97;100.00;62592.34;5052205;28;20216;-54
2024/01/22 07:59:46;;;;;;;25.50;12.40;;;;;;;-2.94;99.24;62596.13;5034608;28;20199;-55
2024/01/22 08:02:12;;;;;;;23.97;12.07;;;;;;;-2.92;100.00;62595.81;5052248;28;20211;-53
2024/01/22 08:04:37;;;;;;;23.57;10.37;;;;;;;-2.65;93.42;62626.88;5052219;28;20489;-54
2024/01/22 08:07:03;;;;;;;21.90;10.53;;;;;;;-2.75;92.28;62616.63;5052210;28;20713;-55
2024/01/22 08:09:35;;;;;;;25.97;10.07;;;;;;;-2.81;90.71;62612.09;5052347;28;20221;-55
2024/01/22 08:12:05;;;;;;;22.47;10.53;;;;;;;-2.63;89.42;62629.56;5052651;28;20236;-52
2024/01/22 08:14:31;;;;;;;28.03;12.33;;;;;;;-2.68;89.69;62623.63;5034376;28;20201;-53
2024/01/22 08:16:57;;;;;;;26.60;12.33;;;;;;;-2.38;90.92;62656.03;5052572;28;20213;-53
2024/01/22 08:19:22;;;;;;;23.37;12.27;;;;;;;-2.41;86.41;62647.31;5041836;23;20288;-53
2024/01/22 08:21:48;;;;;;;24.20;11.70;;;;;;;-2.13;84.96;62683.03;5052128;28;20678;-55
2024/01/22 08:24:14;;;;;;;25.63;11.80;;;;;;;-2.12;84.57;62678.63;5052046;28;20275;-53
2024/01/22 08:26:39;;;;;;;27.93;13.43;;;;;;;-1.78;83.36;62720.28;5051917;28;20178;-54
2024/01/22 08:29:05;;;;;;;29.70;12.67;;;;;;;-1.44;80.44;62754.00;5052132;28;20192;-55
2024/01/22 08:31:30;;;;;;;37.53;14.53;;;;;;;-1.27;80.63;62772.91;5051794;28;20190;-55
2024/01/22 08:33:56;;;;;;;27.50;12.43;;;;;;;-1.18;78.07;62779.63;5051904;28;20197;-54
2024/01/22 08:36:22;;;;;;;27.30;11.93;;;;;;;-0.82;75.03;62823.50;5052146;28;20193;-53
2024/01/22 08:38:54;;;;;;;26.67;12.03;;;;;;;-0.52;75.18;62855.94;5051787;28;20258;-53
2024/01/22 08:41:23;;;;;;;23.27;12.90;;;;;;;-0.66;71.53;62840.81;5033992;28;20196;-53
2024/01/22 08:43:48;;;;;;;20.97;11.73;;;;;;;-0.19;74.42;62889.19;5051240;28;20212;-55
2024/01/22 08:46:14;;;;;;;30.80;13.20;;;;;;;0.23;73.77;62933.53;5051822;28;20267;-53
2024/01/22 08:48:39;;;;;;;33.03;14.33;;;;;;;0.65;73.62;62982.06;5051472;28;20206;-53
2024/01/22 08:51:05;;;;;;;39.07;18.47;;;;;;;0.50;72.69;62962.78;5051713;28;20697;-57
2024/01/22 08:53:31;;;;;;;48.13;19.17;;;;;;;0.26;77.10;62939.28;5051695;28;20248;-54
2024/01/22 08:55:56;;;;;;;40.17;17.40;;;;;;;-0.89;78.79;62815.94;5051473;28;20263;-54
2024/01/22 08:58:22;;;;;;;44.13;19.07;;;;;;;-1.10;82.08;62791.28;5033696;28;20227;-54
2024/01/22 09:00:48;;;;;;;40.60;19.33;;;;;;;-1.05;87.84;62796.16;5034157;28;20196;-52
2024/01/22 09:03:13;;;;;;;48.37;18.53;;;;;;;-1.04;88.67;62800.25;5051428;28;20213;-55
2024/01/22 09:05:39;;;;;;;41.13;18.00;;;;;;;-1.11;89.22;62792.16;5051507;28;20552;-53
2024/01/22 09:08:04;;;;;;;43.60;19.63;;;;;;;-1.10;92.02;62791.28;5033519;28;20228;-53
2024/01/22 09:10:31;;;;;;;42.23;18.83;;;;;;;-1.11;91.64;62787.72;5051447;28;20216;-52
2024/01/22 09:12:57;;;;;;;51.30;20.13;;;;;;;-1.06;87.87;62795.06;5051602;28;20691;-53
2024/01/22 09:15:23;;;;;;;43.40;20.00;;;;;;;-1.24;88.10;62778.63;5033372;28;20249;-54
2024/01/22 09:17:49;;;;;;;47.87;20.50;;;;;;;-1.18;90.08;62785.13;5051439;28;20224;-53
2024/01/22 09:20:15;;;;;;;52.83;20.77;;;;;;;-1.00;89.91;62799.09;5051308;28;20239;-53
2024/01/22 09:22:41;;;;;;;43.80;18.70;;;;;;;-0.70;88.81;62830.97;5033256;28;20226;-53
2024/01/22 09:25:08;;;;;;;42.87;18.80;;;;;;;-0.92;89.04;62810.22;5051313;28;20177;-53
2024/01/22 09:27:34;;;;;;;53.53;22.07;;;;;;;-1.16;89.94;62787.28;5033494;28;20217;-54
2024/01/22 09:29:59;;;;;;;44.30;20.37;;;;;;;-1.16;90.66;62786.72;5051054;28;20643;-52
2024/01/22 09:32:25;;;;;;;44.37;20.90;;;;;;;-0.81;91.06;62822.13;5033180;28;20209;-56
2024/01/22 09:34:51;;;;;;;47.93;20.00;;;;;;;-0.54;88.94;62848.84;5051036;28;20219;-54
2024/01/22 09:37:17;;;;;;;51.50;20.97;;;;;;;-0.76;86.75;62826.97;5050830;28;20219;-54
2024/01/22 09:39:44;;;;;;;42.00;18.80;;;;;;;-0.51;86.88;62857.03;5051027;28;20189;-54
2024/01/22 09:42:15;;;;;;;45.57;19.93;;;;;;;-0.36;86.74;62870.78;5049498;28;20294;-56
2024/01/22 09:44:41;;;;;;;47.13;20.40;;;;;;;-0.08;85.48;62903.56;5049369;28;20188;-53
2024/01/22 09:47:09;;;;;;;49.63;22.10;;;;;;;-0.11;86.25;62900.31;5031208;28;20722;-52
2024/01/22 09:49:36;;;;;;;46.10;20.97;;;;;;;0.23;83.98;62936.56;5032271;28;20200;-51
2024/01/22 09:52:03;;;;;;;47.30;22.03;;;;;;;0.29;82.24;62942.53;5032083;28;20702;-55
2024/01/22 09:54:30;;;;;;;45.83;21.97;;;;;;;0.29;83.48;62942.53;5057700;23;20807;-53
2024/01/22 09:56:59;;;;;;;47.57;21.00;;;;;;;0.88;80.75;63003.94;5052905;28;20702;-54
2024/01/22 09:59:28;;;;;;;41.83;21.30;;;;;;;1.74;76.06;63098.56;5053449;28;20246;-55
2024/01/22 10:01:54;;;;;;;46.10;22.03;;;;;;;2.11;72.13;63139.25;5036341;28;20292;-54
2024/01/22 10:04:23;;;;;;;48.63;21.63;;;;;;;2.40;72.55;63165.19;5035439;28;20189;-55
2024/01/22 10:06:50;;;;;;;51.17;21.73;;;;;;;2.83;69.70;63216.31;5050450;28;20200;-54
2024/01/22 10:09:17;;;;;;;44.57;22.73;;;;;;;3.21;68.72;63257.56;5053800;28;20200;-54
2024/01/22 10:11:43;;;;;;;45.73;21.87;;;;;;;3.47;67.45;63283.31;5052593;28;20181;-56
2024/01/22 10:14:10;;;;;;;43.83;22.93;;;;;;;3.24;66.29;63260.81;5053968;28;20187;-54
2024/01/22 10:16:38;;;;;;;47.50;22.23;;;;;;;3.78;65.60;63316.44;5053496;28;20189;-54
2024/01/22 10:19:08;;;;;;;48.77;22.83;;;;;;;4.19;64.40;63363.53;5053677;28;20224;-53
2024/01/22 10:21:36;;;;;;;41.87;21.70;;;;;;;4.55;61.83;63402.13;5053771;28;20191;-54
2024/01/22 10:24:09;;;;;;;49.37;21.97;;;;;;;4.76;58.90;63425.53;5052070;28;20202;-55
2024/01/22 10:26:35;;;;;;;50.80;23.20;;;;;;;4.84;59.00;63431.75;5052286;28;20187;-55
2024/01/22 10:29:18;;;;;;;48.63;22.07;;;;;;;4.62;59.15;63407.25;5027295;28;20192;-54
2024/01/22 10:32:02;;;;;;;52.57;23.40;;;;;;;4.72;58.21;63418.13;5013167;28;20188;-54
2024/01/22 10:34:51;;;;;;;46.80;23.03;;;;;;;4.73;59.47;63419.22;5033713;28;20194;-55
2024/01/22 10:37:18;;;;;;;53.37;24.80;;;;;;;4.87;59.35;63429.44;5032173;28;20213;-55
2024/01/22 10:39:49;;;;;;;55.60;24.40;;;;;;;4.89;59.00;63434.66;5033935;28;20184;-54
2024/01/22 10:42:16;;;;;;;52.77;22.37;;;;;;;4.74;58.80;63423.34;5015876;28;20218;-55
2024/01/22 10:44:47;;;;;;;54.43;25.40;;;;;;;4.91;58.19;63441.84;5015867;28;20186;-55
2024/01/22 10:47:14;;;;;;;51.87;23.63;;;;;;;4.94;57.81;63444.56;5033752;28;20562;-53
2024/01/22 10:49:42;;;;;;;56.07;25.17;;;;;;;5.01;57.91;63450.22;5033527;28;20275;-57
2024/01/22 10:52:08;;;;;;;52.93;25.03;;;;;;;4.59;57.71;63401.50;5033165;28;20579;-55
2024/01/22 10:54:35;;;;;;;53.87;24.73;;;;;;;4.34;58.92;63379.28;5033599;28;20191;-56
2024/01/22 10:57:03;;;;;;;50.37;24.43;;;;;;;4.56;58.62;63398.78;5033280;28;20216;-54
2024/01/22 10:59:30;;;;;;;42.80;20.67;;;;;;;4.95;97.73;63443.69;5033297;28;20210;-55
2024/01/22 11:01:58;;;;;;;52.60;23.70;;;;;;;5.36;59.56;63489.72;5033110;28;20240;-55
2024/01/22 11:04:29;;;;;;;56.43;25.00;;;;;;;5.54;56.78;63506.81;5033170;28;20197;-58
2024/01/22 11:06:59;;;;;;;53.90;25.63;;;;;;;5.41;56.14;63492.69;5032567;28;20277;-54
2024/01/22 11:09:30;;;;;;;58.53;25.47;;;;;;;5.29;57.25;63480.16;5033214;28;20200;-56
2024/01/22 11:12:03;;;;;;;55.03;25.37;;;;;;;5.25;56.76;63478.31;5033119;28;20257;-55
2024/01/22 11:14:28;;;;;;;51.47;25.67;;;;;;;5.27;57.69;63478.00;5033091;28;20252;-56